Time;durP1;ratioP1;P1;durP2;ratioP2;P2;SDS_P1;SDS_P2;PMS_P1;PMS_P2;Temp;Humidity;BMP_temperature;BMP_pressure;BME280_temperature;BME280_humidity;BME280_pressure;Samples;Min_cycle;Max_cycle;Signal;HPM_P1;HPM_P2
2021/10/15 00:00:26;;;;;;;7.43;6.72;;;3.60;83.20;;;;;;5217872;28;20041;-67
2021/10/15 00:03:00;;;;;;;6.60;6.00;;;3.60;83.50;;;;;;5219079;28;20068;-67
2021/10/15 00:05:33;;;;;;;6.57;5.97;;;3.60;83.60;;;;;;5214259;28;20045;-67
2021/10/15 00:08:04;;;;;;;6.57;5.97;;;3.50;83.30;;;;;;5217347;28;20049;-67
2021/10/15 00:10:36;;;;;;;8.20;6.47;;;3.50;83.90;;;;;;5218146;28;20045;-69
2021/10/15 00:13:08;;;;;;;6.95;6.25;;;3.50;83.50;;;;;;5219009;28;20063;-68
2021/10/15 00:15:40;;;;;;;6.95;6.15;;;3.50;83.00;;;;;;5217609;28;20051;-67
2021/10/15 00:18:12;;;;;;;6.88;6.15;;;3.40;83.30;;;;;;5217965;28;20047;-68
2021/10/15 00:20:45;;;;;;;6.82;6.13;;;3.40;83.00;;;;;;5216640;28;20419;-67
2021/10/15 00:23:16;;;;;;;6.93;6.22;;;3.40;82.90;;;;;;5218761;28;20124;-67
2021/10/15 00:25:48;;;;;;;6.75;6.05;;;3.40;83.50;;;;;;5216237;28;20734;-66
2021/10/15 00:28:20;;;;;;;6.90;6.00;;;3.40;83.00;;;;;;5217998;28;20464;-68
2021/10/15 00:30:57;;;;;;;7.00;6.30;;;3.40;82.80;;;;;;5231328;28;20350;-67
2021/10/15 00:33:29;;;;;;;6.68;6.07;;;3.40;82.60;;;;;;5218581;28;20453;-66
2021/10/15 00:36:01;;;;;;;6.18;5.57;;;3.40;83.40;;;;;;5213565;28;20636;-67
2021/10/15 00:38:33;;;;;;;7.45;6.10;;;3.40;84.70;;;;;;5217128;28;20560;-67
2021/10/15 00:41:05;;;;;;;6.47;5.88;;;3.30;85.00;;;;;;5217305;28;20052;-66
2021/10/15 00:43:56;;;;;;;6.30;5.70;;;3.30;84.30;;;;;;5217288;28;20128;-66
2021/10/15 00:46:29;;;;;;;7.32;6.47;;;3.30;85.50;;;;;;5217560;28;20057;-66
2021/10/15 00:49:09;;;;;;;6.50;5.90;;;3.30;85.00;;;;;;5218087;28;20072;-67
2021/10/15 00:51:43;;;;;;;6.70;6.10;;;3.20;84.40;;;;;;5216859;28;20510;-66
2021/10/15 00:54:16;;;;;;;6.30;5.60;;;3.20;84.30;;;;;;5218594;28;20128;-66
2021/10/15 00:56:48;;;;;;;6.47;5.88;;;3.30;84.70;;;;;;5216905;28;20193;-67
2021/10/15 00:59:21;;;;;;;6.93;6.32;;;3.20;84.20;;;;;;5217481;28;20592;-67
2021/10/15 01:01:53;;;;;;;7.07;6.38;;;3.20;83.90;;;;;;5217266;28;20051;-67
2021/10/15 01:04:26;;;;;;;6.85;6.25;;;3.10;83.60;;;;;;5217586;28;20029;-66
2021/10/15 01:06:57;;;;;;;7.07;6.43;;;3.10;83.30;;;;;;5216464;28;20044;-67
2021/10/15 01:09:31;;;;;;;6.63;6.03;;;3.10;83.50;;;;;;5218662;28;20120;-66
2021/10/15 01:12:04;;;;;;;6.75;6.05;;;3.10;84.40;;;;;;5216034;28;20047;-67
2021/10/15 01:14:36;;;;;;;7.40;6.70;;;3.00;84.00;;;;;;5218124;28;20505;-67
2021/10/15 01:17:08;;;;;;;7.25;6.57;;;3.10;83.80;;;;;;5216762;28;20489;-66
2021/10/15 01:19:40;;;;;;;6.30;5.70;;;3.10;83.60;;;;;;5217599;28;20037;-66
2021/10/15 01:22:12;;;;;;;6.53;5.93;;;3.10;84.40;;;;;;5216891;28;20040;-66
2021/10/15 01:24:44;;;;;;;7.40;6.60;;;3.10;85.50;;;;;;5216817;28;20033;-68
2021/10/15 01:27:15;;;;;;;6.82;6.18;;;3.00;84.50;;;;;;5214932;28;20580;-69
2021/10/15 01:29:48;;;;;;;7.00;6.30;;;3.00;84.10;;;;;;5217443;28;20044;-67
2021/10/15 01:32:21;;;;;;;7.30;6.60;;;3.00;84.00;;;;;;5216447;28;20059;-67
2021/10/15 01:34:52;;;;;;;6.88;6.18;;;3.00;84.40;;;;;;5216439;28;20077;-67
2021/10/15 01:37:24;;;;;;;6.57;5.97;;;3.00;83.60;;;;;;5216281;28;20037;-68
2021/10/15 01:39:56;;;;;;;6.80;6.20;;;3.00;83.20;;;;;;5216742;28;20040;-67
2021/10/15 01:45:18;;;;;;;;;;;3.10;83.50;;;;;;5216905;28;20064;-68
2021/10/15 01:47:51;;;;;;;7.38;6.68;;;3.00;83.90;;;;;;5216393;28;19924;-68
2021/10/15 01:50:24;;;;;;;6.88;6.28;;;2.90;83.60;;;;;;5216966;28;20136;-65
2021/10/15 01:52:57;;;;;;;7.03;6.32;;;3.00;83.30;;;;;;5216352;28;20086;-66
2021/10/15 01:55:29;;;;;;;6.60;6.00;;;3.00;83.40;;;;;;5217226;28;20786;-66
2021/10/15 01:58:01;;;;;;;6.60;6.00;;;2.90;84.70;;;;;;5215299;28;20123;-67
2021/10/15 02:00:34;;;;;;;6.50;5.90;;;2.90;84.90;;;;;;5215829;28;20069;-67
2021/10/15 02:03:06;;;;;;;6.13;5.53;;;2.80;85.20;;;;;;5215473;28;20114;-67
2021/10/15 02:05:38;;;;;;;6.05;5.45;;;2.80;84.70;;;;;;5216875;28;20059;-66
2021/10/15 02:08:10;;;;;;;6.68;6.07;;;2.80;84.10;;;;;;5216091;28;20534;-68
2021/10/15 02:10:42;;;;;;;6.82;6.18;;;2.80;83.90;;;;;;5215637;28;20418;-67
2021/10/15 02:13:14;;;;;;;6.50;5.90;;;2.80;83.70;;;;;;5215670;28;20151;-67
2021/10/15 02:15:46;;;;;;;6.00;5.50;;;2.80;83.70;;;;;;5216486;28;20566;-67
2021/10/15 02:18:18;;;;;;;6.40;5.80;;;2.80;83.70;;;;;;5216303;28;20787;-67
2021/10/15 02:20:50;;;;;;;6.40;5.80;;;2.80;84.50;;;;;;5215404;28;20573;-67
2021/10/15 02:23:23;;;;;;;6.60;6.00;;;2.60;84.50;;;;;;5216365;28;20036;-67
2021/10/15 02:25:55;;;;;;;6.47;5.88;;;2.60;84.50;;;;;;5215374;28;20067;-66
2021/10/15 02:28:27;;;;;;;6.00;5.45;;;2.60;84.40;;;;;;5214493;28;20049;-66
2021/10/15 02:30:59;;;;;;;6.45;5.55;;;2.60;84.20;;;;;;5213774;28;20140;-66
2021/10/15 02:33:31;;;;;;;6.65;6.00;;;2.60;84.30;;;;;;5214777;28;20053;-66
2021/10/15 02:36:04;;;;;;;5.88;5.28;;;2.60;84.10;;;;;;5223165;28;20502;-67
2021/10/15 02:38:36;;;;;;;6.38;5.78;;;2.60;83.80;;;;;;5214614;28;20115;-67
2021/10/15 02:41:08;;;;;;;6.35;5.75;;;2.70;85.10;;;;;;5215479;28;20688;-67
2021/10/15 02:43:39;;;;;;;6.32;5.72;;;2.60;84.60;;;;;;5214080;28;20049;-66
2021/10/15 02:46:13;;;;;;;6.55;5.78;;;2.60;84.60;;;;;;5214729;28;20045;-66
2021/10/15 02:48:45;;;;;;;6.22;5.63;;;2.70;84.80;;;;;;5215261;28;20110;-67
2021/10/15 02:51:17;;;;;;;6.50;5.90;;;2.70;84.80;;;;;;5215496;28;20110;-66
2021/10/15 02:53:50;;;;;;;5.80;5.25;;;2.70;85.20;;;;;;5215452;28;20055;-67
2021/10/15 02:56:22;;;;;;;5.80;5.20;;;2.60;85.40;;;;;;5214325;28;20076;-66
2021/10/15 02:58:54;;;;;;;7.03;6.32;;;2.70;85.70;;;;;;5215622;28;20147;-66
2021/10/15 03:01:26;;;;;;;5.63;5.13;;;2.70;85.20;;;;;;5213845;28;20037;-67
2021/10/15 03:03:59;;;;;;;6.28;5.68;;;2.70;84.60;;;;;;5213186;28;20041;-67
2021/10/15 03:06:31;;;;;;;6.25;5.65;;;2.60;84.30;;;;;;5214092;28;20195;-66
2021/10/15 03:09:03;;;;;;;7.28;5.30;;;2.70;84.00;;;;;;5213437;28;20140;-67
2021/10/15 03:11:35;;;;;;;6.25;5.47;;;2.60;84.30;;;;;;5214336;28;20466;-66
2021/10/15 03:14:07;;;;;;;5.90;5.40;;;2.60;85.10;;;;;;5215909;28;20037;-67
2021/10/15 03:16:39;;;;;;;5.90;5.40;;;2.60;85.30;;;;;;5213501;28;20551;-68
2021/10/15 03:19:10;;;;;;;5.70;5.20;;;2.60;85.60;;;;;;5214910;28;20076;-68
2021/10/15 03:21:43;;;;;;;5.70;5.20;;;2.60;85.40;;;;;;5216629;28;20041;-66
2021/10/15 03:24:15;;;;;;;6.00;5.40;;;2.60;84.80;;;;;;5219717;28;20095;-67
2021/10/15 03:26:47;;;;;;;6.03;5.40;;;2.70;84.40;;;;;;5219146;28;20146;-66
2021/10/15 03:29:19;;;;;;;6.45;5.85;;;2.60;84.10;;;;;;5219130;28;20153;-66
2021/10/15 03:31:51;;;;;;;6.28;5.68;;;2.50;84.60;;;;;;5218679;28;20051;-69
2021/10/15 03:34:23;;;;;;;6.78;6.07;;;2.50;84.70;;;;;;5219334;28;20052;-68
2021/10/15 03:36:55;;;;;;;5.55;5.03;;;2.50;84.70;;;;;;5218501;28;20592;-68
2021/10/15 03:39:27;;;;;;;5.70;5.20;;;2.50;84.30;;;;;;5219405;28;20608;-67
2021/10/15 03:41:59;;;;;;;5.97;5.47;;;2.60;85.10;;;;;;5218918;28;20507;-67
2021/10/15 03:44:30;;;;;;;6.45;5.85;;;2.60;87.50;;;;;;5218971;28;20051;-67
2021/10/15 03:47:03;;;;;;;6.45;5.85;;;2.60;86.40;;;;;;5219310;28;20506;-67
2021/10/15 03:49:34;;;;;;;6.28;5.68;;;2.50;85.40;;;;;;5217933;28;20076;-66
2021/10/15 03:52:06;;;;;;;7.35;6.03;;;2.50;85.00;;;;;;5219156;28;20041;-68
2021/10/15 03:54:38;;;;;;;6.05;5.45;;;2.40;85.30;;;;;;5219484;28;20482;-66
2021/10/15 03:57:10;;;;;;;6.63;6.03;;;2.40;85.00;;;;;;5208570;28;20131;-66
2021/10/15 03:59:42;;;;;;;6.20;5.60;;;2.40;84.90;;;;;;5219129;28;20882;-66
2021/10/15 04:02:14;;;;;;;6.38;5.78;;;2.40;84.70;;;;;;5218965;28;20106;-67
2021/10/15 04:04:46;;;;;;;7.32;6.43;;;2.40;85.10;;;;;;5218070;28;20418;-66
2021/10/15 04:07:18;;;;;;;6.75;6.05;;;2.40;84.90;;;;;;5217704;28;20593;-67
2021/10/15 04:09:50;;;;;;;6.80;6.20;;;2.40;84.70;;;;;;5218153;28;20048;-66
2021/10/15 04:12:21;;;;;;;6.45;5.85;;;2.30;84.40;;;;;;5217250;28;20098;-66
2021/10/15 04:14:53;;;;;;;6.78;6.07;;;2.40;84.30;;;;;;5218823;28;20053;-67
2021/10/15 04:17:26;;;;;;;6.60;5.90;;;2.40;84.30;;;;;;5217313;28;20426;-66
2021/10/15 04:19:57;;;;;;;7.10;6.05;;;2.30;84.50;;;;;;5218576;28;20599;-67
2021/10/15 04:22:29;;;;;;;6.55;5.90;;;2.30;84.70;;;;;;5217725;28;20047;-69
2021/10/15 04:25:03;;;;;;;6.43;5.82;;;2.30;84.20;;;;;;5217435;28;20103;-66
2021/10/15 04:27:34;;;;;;;7.70;5.50;;;2.30;84.20;;;;;;5218032;28;20082;-67
2021/10/15 04:30:07;;;;;;;7.18;5.63;;;2.40;83.90;;;;;;5224232;28;20041;-68
2021/10/15 04:32:39;;;;;;;6.00;5.40;;;2.40;83.70;;;;;;5219149;28;20132;-67
2021/10/15 04:35:11;;;;;;;5.70;5.20;;;2.40;84.00;;;;;;5216628;28;20486;-67
2021/10/15 04:37:42;;;;;;;5.20;4.70;;;2.40;84.40;;;;;;5218258;28;20037;-68
2021/10/15 04:40:14;;;;;;;5.88;5.10;;;2.40;86.20;;;;;;5224654;28;20051;-68
2021/10/15 04:42:46;;;;;;;5.60;5.10;;;2.40;87.00;;;;;;5217275;28;20124;-68
2021/10/15 04:45:18;;;;;;;6.05;5.45;;;2.40;86.00;;;;;;5215780;28;20053;-67
2021/10/15 04:47:50;;;;;;;5.90;5.30;;;2.30;85.60;;;;;;5216936;28;20637;-67
2021/10/15 04:50:22;;;;;;;5.97;5.38;;;2.30;86.00;;;;;;5217654;28;20067;-66
2021/10/15 04:52:57;;;;;;;6.13;5.30;;;2.30;85.70;;;;;;5217873;28;20067;-66
2021/10/15 04:55:29;;;;;;;6.60;5.57;;;2.30;85.30;;;;;;5216959;28;20044;-65
2021/10/15 04:58:02;;;;;;;7.57;4.93;;;2.30;85.30;;;;;;5215574;28;20517;-67
2021/10/15 05:00:35;;;;;;;5.80;5.20;;;2.30;88.40;;;;;;5215927;28;20041;-66
2021/10/15 05:03:07;;;;;;;7.13;5.72;;;2.30;86.00;;;;;;5232595;28;20064;-66
2021/10/15 05:05:43;;;;;;;6.72;5.53;;;2.30;85.60;;;;;;5217977;28;20474;-66
2021/10/15 05:08:16;;;;;;;5.80;5.20;;;2.20;85.40;;;;;;5214577;28;20128;-66
2021/10/15 05:10:49;;;;;;;5.70;5.20;;;2.30;85.40;;;;;;5217172;28;20097;-66
2021/10/15 05:13:21;;;;;;;5.40;4.90;;;2.30;85.20;;;;;;5214037;28;20130;-67
2021/10/15 05:15:53;;;;;;;7.63;5.00;;;2.20;84.90;;;;;;5216911;28;20053;-66
2021/10/15 05:18:25;;;;;;;6.53;4.93;;;2.30;85.10;;;;;;5216342;28;20372;-66
2021/10/15 05:20:56;;;;;;;5.30;4.80;;;2.30;84.50;;;;;;5209625;28;20503;-66
2021/10/15 05:23:28;;;;;;;5.07;4.57;;;2.30;84.20;;;;;;5215159;28;20507;-65
2021/10/15 05:26:01;;;;;;;5.15;4.57;;;2.30;84.10;;;;;;5198612;28;20052;-65
2021/10/15 05:28:33;;;;;;;5.43;4.60;;;2.30;84.10;;;;;;5216090;28;20171;-66
2021/10/15 05:31:05;;;;;;;5.00;4.50;;;2.30;84.70;;;;;;5216376;28;20136;-66
2021/10/15 05:33:37;;;;;;;4.93;4.43;;;2.30;85.00;;;;;;5216018;28;20045;-67
2021/10/15 05:36:09;;;;;;;5.18;4.68;;;2.30;85.90;;;;;;5215846;28;20179;-67
2021/10/15 05:38:41;;;;;;;5.78;4.85;;;2.20;84.90;;;;;;5214980;28;20041;-67
2021/10/15 05:41:13;;;;;;;5.50;4.90;;;2.30;85.00;;;;;;5215969;28;20048;-66
2021/10/15 05:43:45;;;;;;;5.43;4.90;;;2.30;86.10;;;;;;5214407;28;20431;-66
2021/10/15 05:46:17;;;;;;;5.45;4.95;;;2.30;85.50;;;;;;5214463;28;20041;-66
2021/10/15 05:48:49;;;;;;;6.97;5.82;;;2.30;86.10;;;;;;5215187;28;20045;-66
2021/10/15 05:51:23;;;;;;;7.38;6.63;;;2.30;86.50;;;;;;5215909;28;20469;-66
2021/10/15 05:53:58;;;;;;;5.43;4.93;;;2.20;86.50;;;;;;5216374;28;20044;-68
2021/10/15 05:57:02;;;;;;;6.65;5.03;;;2.20;88.10;;;;;;5213627;28;20133;-66
2021/10/15 05:59:34;;;;;;;5.13;4.60;;;2.20;88.30;;;;;;5212929;28;20040;-66
2021/10/15 06:02:07;;;;;;;5.80;5.20;;;2.30;88.50;;;;;;5215614;28;20091;-66
2021/10/15 06:15:50;;;;;;;6.75;5.50;;;2.20;86.40;;;;;;5213058;28;20133;-66
2021/10/15 06:18:23;;;;;;;6.63;5.47;;;2.30;86.30;;;;;;5214685;28;20060;-66
2021/10/15 06:20:55;;;;;;;9.45;8.55;;;2.40;87.30;;;;;;5215335;28;20122;-66
2021/10/15 06:23:28;;;;;;;9.35;8.45;;;2.50;86.70;;;;;;5215622;28;20042;-66
2021/10/15 06:26:01;;;;;;;8.88;8.00;;;2.50;86.10;;;;;;5215087;28;20380;-66
2021/10/15 06:28:33;;;;;;;7.25;6.30;;;2.60;85.60;;;;;;5213693;28;20037;-67
2021/10/15 06:31:05;;;;;;;6.88;6.28;;;2.60;85.60;;;;;;5215891;28;20056;-67
2021/10/15 06:33:37;;;;;;;6.40;5.70;;;2.70;85.70;;;;;;5210202;28;20045;-67
2021/10/15 06:36:09;;;;;;;6.18;5.55;;;2.80;85.30;;;;;;5215188;28;20503;-67
2021/10/15 06:38:41;;;;;;;6.68;6.00;;;2.90;85.60;;;;;;5210354;28;20053;-67
2021/10/15 06:41:13;;;;;;;8.80;6.32;;;3.00;85.70;;;;;;5215966;28;20128;-67
2021/10/15 06:43:45;;;;;;;6.85;6.15;;;3.00;85.80;;;;;;5214314;28;20065;-68
2021/10/15 06:46:20;;;;;;;6.85;6.18;;;3.10;85.60;;;;;;5213307;28;20037;-67
2021/10/15 06:48:52;;;;;;;6.38;5.78;;;3.20;85.80;;;;;;5215367;28;20132;-66
2021/10/15 06:51:24;;;;;;;6.68;6.03;;;3.30;85.80;;;;;;5212126;28;20057;-66
2021/10/15 06:53:56;;;;;;;8.02;5.45;;;3.40;85.90;;;;;;5209987;28;20037;-66
2021/10/15 06:56:29;;;;;;;7.32;6.03;;;3.50;86.00;;;;;;5212347;28;20127;-66
2021/10/15 06:59:01;;;;;;;6.40;5.80;;;3.60;86.10;;;;;;5215966;28;20417;-66
2021/10/15 07:01:34;;;;;;;7.50;6.70;;;3.70;85.80;;;;;;5212490;28;20041;-67
2021/10/15 07:04:06;;;;;;;7.00;6.30;;;3.80;85.40;;;;;;5214382;28;20068;-67
2021/10/15 07:06:38;;;;;;;8.32;7.00;;;3.90;85.20;;;;;;5211980;28;20041;-67
2021/10/15 07:09:10;;;;;;;8.05;6.47;;;4.00;84.90;;;;;;5213541;28;20586;-68
2021/10/15 07:11:42;;;;;;;7.55;6.60;;;4.10;85.00;;;;;;5212275;28;20076;-67
2021/10/15 07:14:17;;;;;;;9.35;7.47;;;4.20;84.80;;;;;;5214917;28;20556;-67
2021/10/15 07:16:49;;;;;;;8.50;7.25;;;4.30;84.90;;;;;;5211340;28;20072;-66
2021/10/15 07:19:21;;;;;;;9.70;7.20;;;4.40;84.90;;;;;;5215369;28;20056;-66
2021/10/15 07:21:53;;;;;;;8.93;7.85;;;4.50;84.80;;;;;;5212503;28;20528;-66
2021/10/15 07:24:25;;;;;;;9.45;8.45;;;4.60;84.80;;;;;;5213242;28;20554;-66
2021/10/15 07:26:57;;;;;;;8.77;7.88;;;4.70;85.10;;;;;;5213513;28;20494;-65
2021/10/15 07:29:29;;;;;;;7.57;6.88;;;4.80;85.40;;;;;;5215871;28;20036;-67
2021/10/15 07:32:01;;;;;;;8.15;7.00;;;4.90;85.20;;;;;;5212541;28;20506;-67
2021/10/15 07:34:33;;;;;;;7.93;7.13;;;5.10;85.00;;;;;;5214764;28;20041;-67
2021/10/15 07:37:05;;;;;;;7.95;7.15;;;5.30;85.00;;;;;;5212618;28;20522;-67
2021/10/15 07:39:37;;;;;;;8.82;7.32;;;5.50;84.60;;;;;;5215248;28;20361;-67
2021/10/15 07:42:09;;;;;;;10.60;8.75;;;5.60;84.90;;;;;;5213536;28;20227;-67
2021/10/15 07:44:41;;;;;;;8.10;7.30;;;5.80;85.30;;;;;;5214296;28;20041;-68
2021/10/15 07:47:13;;;;;;;11.07;7.05;;;6.00;84.80;;;;;;5212064;28;20913;-67
2021/10/15 07:49:45;;;;;;;7.70;6.90;;;6.20;83.70;;;;;;5212713;28;20126;-68
2021/10/15 07:52:17;;;;;;;8.07;7.28;;;6.30;83.70;;;;;;5214140;28;20118;-67
2021/10/15 07:54:49;;;;;;;7.85;7.15;;;6.50;83.60;;;;;;5214047;28;20571;-68
2021/10/15 07:57:21;;;;;;;9.57;7.75;;;6.70;83.80;;;;;;5213162;28;20037;-67
2021/10/15 07:59:53;;;;;;;12.48;8.00;;;6.90;83.60;;;;;;5213007;28;20092;-68
2021/10/15 08:02:26;;;;;;;15.73;8.52;;;7.00;82.30;;;;;;5214836;28;20171;-68
2021/10/15 08:04:58;;;;;;;13.50;8.57;;;7.10;81.80;;;;;;5215090;28;20757;-68
2021/10/15 08:07:30;;;;;;;10.23;7.97;;;7.30;81.70;;;;;;5216392;28;20152;-68
2021/10/15 08:10:02;;;;;;;13.77;8.45;;;7.40;81.60;;;;;;5214097;28;20037;-69
2021/10/15 08:12:35;;;;;;;11.90;8.55;;;7.50;80.60;;;;;;5197766;28;20160;-68
2021/10/15 08:15:09;;;;;;;9.55;8.60;;;7.70;80.30;;;;;;5198058;28;20132;-68
2021/10/15 08:17:46;;;;;;;8.30;7.50;;;7.80;80.20;;;;;;5218422;28;20067;-67
2021/10/15 08:20:20;;;;;;;8.05;7.25;;;7.90;80.40;;;;;;5218363;28;20120;-67
2021/10/15 08:22:53;;;;;;;8.63;7.28;;;7.90;80.40;;;;;;5218768;28;20076;-68
2021/10/15 08:25:29;;;;;;;9.38;7.10;;;8.00;80.90;;;;;;5218754;28;20661;-68
2021/10/15 08:28:01;;;;;;;8.65;7.72;;;8.10;81.40;;;;;;5217969;28;20828;-67
2021/10/15 08:30:33;;;;;;;8.77;7.97;;;8.20;82.10;;;;;;5217277;28;20512;-68
2021/10/15 08:33:05;;;;;;;8.38;7.45;;;8.50;80.70;;;;;;5217797;28;20581;-68
2021/10/15 08:35:37;;;;;;;8.30;7.57;;;8.70;79.50;;;;;;5218423;28;20120;-69
2021/10/15 08:38:09;;;;;;;8.35;7.65;;;8.90;79.00;;;;;;5217658;28;20135;-68
2021/10/15 08:40:41;;;;;;;8.43;7.72;;;9.10;79.10;;;;;;5215719;28;20053;-67
2021/10/15 08:43:15;;;;;;;8.75;7.90;;;9.10;77.40;;;;;;5211958;28;20044;-68
2021/10/15 08:45:47;;;;;;;9.20;8.40;;;9.20;79.40;;;;;;5215775;28;20122;-68
2021/10/15 08:48:19;;;;;;;9.45;8.65;;;9.30;76.80;;;;;;5214676;28;20063;-67
2021/10/15 08:50:52;;;;;;;9.25;8.45;;;9.40;79.30;;;;;;5216792;28;20044;-68
2021/10/15 08:53:24;;;;;;;9.48;8.57;;;9.60;79.60;;;;;;5218018;28;20514;-68
2021/10/15 08:55:56;;;;;;;8.50;7.80;;;9.80;78.70;;;;;;5215386;28;20136;-67
2021/10/15 08:58:45;;;;;;;8.35;7.55;;;9.80;79.30;;;;;;5214377;28;20068;-68
2021/10/15 09:01:17;;;;;;;9.02;7.88;;;9.80;76.00;;;;;;5216824;28;20079;-68
2021/10/15 09:04:03;;;;;;;8.63;7.70;;;9.80;75.90;;;;;;5206735;28;20098;-67
2021/10/15 09:06:40;;;;;;;8.70;7.90;;;9.70;76.80;;;;;;5216208;28;20116;-69
2021/10/15 09:09:12;;;;;;;7.82;7.13;;;9.70;76.70;;;;;;5218064;28;20605;-68
2021/10/15 09:11:48;;;;;;;8.02;7.32;;;9.70;74.60;;;;;;5216390;28;20531;-67
2021/10/15 09:14:25;;;;;;;8.20;7.40;;;9.70;76.00;;;;;;5216757;28;20037;-69
2021/10/15 09:17:13;;;;;;;8.45;7.75;;;9.70;76.80;;;;;;5217512;28;20045;-68
2021/10/15 09:19:50;;;;;;;8.98;8.18;;;9.80;76.30;;;;;;5215848;28;20516;-68
2021/10/15 09:22:33;;;;;;;7.97;7.32;;;10.00;75.40;;;;;;5215495;28;20045;-68
2021/10/15 09:25:11;;;;;;;9.38;8.45;;;10.10;77.90;;;;;;5217204;28;20116;-68
2021/10/15 09:27:45;;;;;;;9.07;8.27;;;10.50;74.50;;;;;;5215560;28;20037;-69
2021/10/15 09:30:20;;;;;;;9.30;8.50;;;10.60;72.30;;;;;;5215625;28;20060;-68
2021/10/15 09:33:01;;;;;;;9.13;8.43;;;10.90;72.60;;;;;;5217902;28;20041;-67
2021/10/15 09:35:33;;;;;;;8.70;7.90;;;11.10;70.70;;;;;;5214392;28;20396;-68
2021/10/15 09:38:08;;;;;;;8.98;8.27;;;11.00;68.30;;;;;;5215764;28;20124;-68
2021/10/15 09:40:43;;;;;;;8.80;8.10;;;10.90;70.00;;;;;;5214455;28;20045;-68
2021/10/15 09:43:15;;;;;;;8.65;7.95;;;10.80;66.90;;;;;;5217218;28;20709;-69
2021/10/15 09:45:49;;;;;;;8.68;7.97;;;10.80;67.90;;;;;;5216014;28;20029;-68
2021/10/15 09:48:38;;;;;;;8.35;7.65;;;10.70;69.00;;;;;;5215360;28;20045;-68
2021/10/15 09:51:16;;;;;;;7.90;7.20;;;10.70;67.80;;;;;;5212252;28;20120;-69
2021/10/15 09:54:11;;;;;;;8.45;7.75;;;10.60;67.70;;;;;;5216233;28;20045;-68
2021/10/15 09:56:45;;;;;;;9.40;8.50;;;10.50;69.00;;;;;;5214646;28;20049;-67
2021/10/15 09:59:18;;;;;;;8.80;8.10;;;10.50;69.60;;;;;;5214109;28;20041;-67
2021/10/15 10:01:50;;;;;;;9.25;8.50;;;10.50;73.00;;;;;;5213335;28;20542;-69
2021/10/15 10:04:22;;;;;;;9.55;8.80;;;10.50;74.80;;;;;;5215135;28;20053;-68
2021/10/15 10:06:56;;;;;;;9.30;8.50;;;10.50;75.50;;;;;;5215897;28;20128;-68
2021/10/15 10:09:29;;;;;;;9.40;8.70;;;10.50;76.10;;;;;;5214987;28;20411;-68
2021/10/15 10:12:02;;;;;;;10.10;9.10;;;10.60;75.50;;;;;;5215499;28;20060;-70
2021/10/15 10:14:34;;;;;;;9.80;9.00;;;10.70;75.00;;;;;;5216127;28;20098;-68
2021/10/15 10:17:09;;;;;;;10.57;9.77;;;10.80;75.60;;;;;;5215093;28;20128;-68
2021/10/15 10:19:42;;;;;;;9.85;9.05;;;11.00;73.10;;;;;;5214948;28;20172;-69
2021/10/15 10:22:19;;;;;;;10.45;9.38;;;11.30;70.60;;;;;;5215899;28;20151;-69
2021/10/15 10:24:55;;;;;;;9.80;9.00;;;11.50;69.90;;;;;;5192376;28;20525;-69
2021/10/15 10:27:32;;;;;;;10.30;9.50;;;11.60;68.30;;;;;;5211090;28;20048;-68
2021/10/15 10:30:05;;;;;;;10.15;9.40;;;11.80;66.50;;;;;;5213714;28;20044;-70
2021/10/15 10:32:37;;;;;;;10.10;9.30;;;12.00;67.80;;;;;;5213672;28;20043;-68
2021/10/15 10:35:25;;;;;;;10.25;9.45;;;12.10;62.50;;;;;;5214728;28;20045;-68
2021/10/15 10:38:21;;;;;;;10.25;9.45;;;12.20;63.70;;;;;;5215203;28;20045;-69
2021/10/15 10:41:02;;;;;;;10.50;9.70;;;12.40;65.20;;;;;;5210096;28;20049;-69
2021/10/15 10:43:44;;;;;;;10.65;9.85;;;12.50;64.80;;;;;;5214615;28;20037;-68
2021/10/15 10:46:19;;;;;;;10.55;9.70;;;12.60;65.20;;;;;;5214722;28;20071;-68
2021/10/15 10:48:51;;;;;;;11.13;10.13;;;12.80;65.00;;;;;;5216138;28;20036;-68
2021/10/15 10:51:29;;;;;;;10.73;9.82;;;12.90;66.50;;;;;;5215591;28;20040;-68
2021/10/15 10:54:01;;;;;;;10.52;9.70;;;13.00;67.50;;;;;;5213622;28;20052;-67
2021/10/15 10:56:38;;;;;;;11.85;10.65;;;13.10;64.60;;;;;;5214016;28;20053;-68
2021/10/15 10:59:23;;;;;;;11.02;10.13;;;13.20;61.90;;;;;;5212835;28;20095;-68
2021/10/15 11:02:11;;;;;;;11.43;10.52;;;13.30;65.70;;;;;;5214317;28;20044;-68
2021/10/15 11:04:43;;;;;;;10.98;9.98;;;13.40;62.80;;;;;;5207783;28;20071;-68
2021/10/15 11:07:15;;;;;;;11.82;10.82;;;13.50;62.70;;;;;;5212985;28;20052;-69
2021/10/15 11:09:50;;;;;;;11.55;10.65;;;13.50;64.80;;;;;;5212162;28;20047;-69
2021/10/15 11:12:42;;;;;;;11.68;10.65;;;13.70;65.50;;;;;;5213838;28;20136;-68
2021/10/15 11:15:14;;;;;;;11.63;10.63;;;13.70;61.60;;;;;;5213875;28;20491;-68
2021/10/15 11:17:48;;;;;;;11.23;10.30;;;13.80;61.20;;;;;;5216190;28;20120;-68
2021/10/15 11:20:29;;;;;;;11.13;10.23;;;13.90;59.40;;;;;;5215871;28;20568;-69
2021/10/15 11:23:10;;;;;;;11.95;10.93;;;13.90;61.30;;;;;;5215172;28;20049;-69
2021/10/15 11:25:47;;;;;;;11.77;10.73;;;14.00;63.30;;;;;;5215358;28;20049;-68
2021/10/15 11:28:21;;;;;;;11.73;10.80;;;14.10;61.20;;;;;;5215006;28;20585;-68
2021/10/15 11:30:53;;;;;;;11.77;10.88;;;14.20;58.50;;;;;;5215132;28;20057;-68
2021/10/15 11:33:26;;;;;;;11.63;10.73;;;14.20;61.10;;;;;;5214969;28;20072;-68
2021/10/15 11:35:58;;;;;;;11.40;10.50;;;14.20;59.80;;;;;;5213330;28;20782;-68
2021/10/15 11:38:29;;;;;;;11.60;10.70;;;14.30;62.80;;;;;;5214980;28;20541;-68
2021/10/15 11:41:06;;;;;;;12.55;11.52;;;14.40;59.30;;;;;;5215626;28;20059;-70
2021/10/15 11:43:43;;;;;;;12.18;11.18;;;14.40;60.60;;;;;;5217572;28;20041;-68
2021/10/15 11:46:18;;;;;;;12.15;10.93;;;14.40;56.70;;;;;;5218853;28;20069;-69
2021/10/15 11:48:52;;;;;;;12.13;11.23;;;14.50;55.60;;;;;;5219856;28;20068;-69
2021/10/15 11:51:26;;;;;;;12.23;11.23;;;14.50;52.00;;;;;;5218719;28;20384;-68
2021/10/15 11:54:03;;;;;;;12.18;11.18;;;14.60;55.30;;;;;;5219686;28;20573;-68
2021/10/15 11:56:35;;;;;;;11.95;11.05;;;14.60;54.00;;;;;;5218104;28;20119;-69
2021/10/15 11:59:08;;;;;;;12.27;11.38;;;14.60;56.90;;;;;;5219878;28;20126;-69
2021/10/15 12:01:40;;;;;;;12.15;11.25;;;14.60;54.50;;;;;;5216933;28;20040;-68
2021/10/15 12:04:13;;;;;;;12.00;11.10;;;14.60;54.60;;;;;;5219247;28;20055;-68
2021/10/15 12:06:49;;;;;;;11.45;10.55;;;14.60;55.50;;;;;;5219031;28;20526;-69
2021/10/15 12:09:23;;;;;;;11.77;10.82;;;14.60;55.60;;;;;;5218168;28;20064;-69
2021/10/15 12:11:57;;;;;;;14.07;12.88;;;14.70;55.50;;;;;;5218824;28;20064;-68
2021/10/15 12:14:32;;;;;;;20.38;18.23;;;14.70;53.70;;;;;;5217603;28;20049;-69
2021/10/15 12:17:07;;;;;;;18.95;17.15;;;14.70;51.70;;;;;;5217619;28;20102;-68
2021/10/15 12:19:46;;;;;;;15.45;13.95;;;14.70;55.00;;;;;;5218936;28;20036;-68
2021/10/15 12:22:24;;;;;;;11.90;11.00;;;14.80;55.60;;;;;;5218978;28;20126;-68
2021/10/15 12:24:58;;;;;;;13.90;12.70;;;14.80;55.00;;;;;;5218327;28;20095;-68
2021/10/15 12:27:39;;;;;;;19.13;17.13;;;14.80;53.30;;;;;;5218748;28;20041;-69
2021/10/15 12:30:16;;;;;;;12.75;11.75;;;14.80;55.80;;;;;;5217609;28;20041;-69
2021/10/15 12:32:48;;;;;;;12.50;11.50;;;14.80;52.90;;;;;;5218388;28;20048;-70
2021/10/15 12:35:27;;;;;;;11.95;11.05;;;14.90;53.20;;;;;;5215253;28;20683;-68
2021/10/15 12:37:59;;;;;;;11.30;10.50;;;15.00;56.20;;;;;;5217469;28;20852;-69
2021/10/15 12:40:34;;;;;;;11.98;11.07;;;15.00;53.00;;;;;;5217866;28;20136;-68
2021/10/15 12:43:15;;;;;;;12.43;11.52;;;15.10;54.60;;;;;;5218567;28;20518;-69
2021/10/15 12:45:47;;;;;;;11.45;10.65;;;15.20;54.40;;;;;;5216041;28;20041;-70
2021/10/15 12:48:30;;;;;;;13.25;12.18;;;15.10;53.80;;;;;;5218282;28;20140;-69
2021/10/15 12:51:14;;;;;;;11.65;10.75;;;15.00;53.10;;;;;;5217917;28;20859;-68
2021/10/15 12:53:50;;;;;;;12.40;11.40;;;14.90;54.60;;;;;;5198912;28;20107;-71
2021/10/15 12:56:26;;;;;;;12.55;11.43;;;14.80;54.40;;;;;;5217417;28;20139;-70
2021/10/15 12:59:00;;;;;;;12.75;11.75;;;14.70;51.20;;;;;;5218108;28;20659;-70
2021/10/15 13:01:33;;;;;;;12.27;11.38;;;14.70;53.80;;;;;;5216841;28;20051;-70
2021/10/15 13:04:05;;;;;;;11.95;11.05;;;14.80;54.70;;;;;;5217760;28;20051;-69
2021/10/15 13:06:38;;;;;;;12.55;11.55;;;14.80;55.20;;;;;;5216806;28;20380;-69
2021/10/15 13:09:11;;;;;;;11.90;11.00;;;14.80;57.30;;;;;;5218548;28;20064;-70
2021/10/15 13:11:43;;;;;;;12.00;11.10;;;14.80;55.00;;;;;;5217363;28;20071;-70
2021/10/15 13:14:15;;;;;;;12.63;11.63;;;14.80;56.00;;;;;;5218805;28;20120;-69
2021/10/15 13:16:48;;;;;;;11.82;10.93;;;14.90;56.90;;;;;;5216166;28;20402;-70
2021/10/15 13:19:19;;;;;;;11.65;10.75;;;14.80;57.70;;;;;;5218279;28;20041;-69
2021/10/15 13:21:51;;;;;;;11.73;10.82;;;14.80;58.10;;;;;;5217043;28;20053;-69
2021/10/15 13:24:23;;;;;;;12.35;11.38;;;14.80;56.50;;;;;;5218080;28;20132;-69
2021/10/15 13:26:55;;;;;;;12.38;11.48;;;14.70;54.10;;;;;;5217253;28;20160;-69
2021/10/15 13:29:27;;;;;;;11.98;11.07;;;14.80;54.70;;;;;;5217804;28;20067;-69
2021/10/15 13:31:59;;;;;;;12.48;11.57;;;14.80;57.50;;;;;;5215912;28;20124;-69
2021/10/15 13:34:31;;;;;;;12.27;11.38;;;14.80;57.40;;;;;;5218431;28;20068;-69
2021/10/15 13:37:07;;;;;;;12.77;11.68;;;14.90;54.70;;;;;;5216426;28;20483;-69